sensor_id;sensor_type;location;lat;lon;timestamp;pressure;altitude;pressure_sealevel;temperature;humidity
57114;BME280;42994;51.606;9.988;2023-04-26T00:01:56;99093.88;;;2.53;100.00
57114;BME280;42994;51.606;9.988;2023-04-26T00:04:23;99098.47;;;2.61;100.00
57114;BME280;42994;51.606;9.988;2023-04-26T00:06:50;99100.00;;;2.54;100.00
57114;BME280;42994;51.606;9.988;2023-04-26T00:09:16;99106.13;;;2.64;100.00
57114;BME280;42994;51.606;9.988;2023-04-26T00:11:44;99097.22;;;2.55;100.00
57114;BME280;42994;51.606;9.988;2023-04-26T00:14:12;99105.88;;;2.67;100.00
57114;BME280;42994;51.606;9.988;2023-04-26T00:16:39;99103.91;;;2.49;100.00
57114;BME280;42994;51.606;9.988;2023-04-26T00:19:05;99095.81;;;2.51;100.00
57114;BME280;42994;51.606;9.988;2023-04-26T00:21:32;99100.16;;;2.52;100.00
57114;BME280;42994;51.606;9.988;2023-04-26T00:23:59;99108.63;;;2.46;100.00
57114;BME280;42994;51.606;9.988;2023-04-26T00:26:26;99105.16;;;2.45;100.00
57114;BME280;42994;51.606;9.988;2023-04-26T00:28:53;99106.84;;;2.46;100.00
57114;BME280;42994;51.606;9.988;2023-04-26T00:31:21;99100.56;;;2.47;100.00
57114;BME280;42994;51.606;9.988;2023-04-26T00:33:47;99102.63;;;2.34;100.00
57114;BME280;42994;51.606;9.988;2023-04-26T00:36:14;99098.03;;;2.36;100.00
57114;BME280;42994;51.606;9.988;2023-04-26T00:38:43;99091.06;;;2.16;100.00
57114;BME280;42994;51.606;9.988;2023-04-26T00:41:10;99094.81;;;2.23;100.00
57114;BME280;42994;51.606;9.988;2023-04-26T00:43:36;99100.25;;;2.31;100.00
57114;BME280;42994;51.606;9.988;2023-04-26T00:46:04;99102.75;;;2.23;100.00
57114;BME280;42994;51.606;9.988;2023-04-26T00:48:33;99102.47;;;2.16;100.00
57114;BME280;42994;51.606;9.988;2023-04-26T00:50:59;99095.22;;;2.18;100.00
57114;BME280;42994;51.606;9.988;2023-04-26T00:53:27;99094.66;;;2.24;100.00
57114;BME280;42994;51.606;9.988;2023-04-26T00:55:55;99095.06;;;2.10;100.00
57114;BME280;42994;51.606;9.988;2023-04-26T00:58:21;99099.38;;;2.21;100.00
57114;BME280;42994;51.606;9.988;2023-04-26T01:00:48;99099.81;;;2.06;100.00
57114;BME280;42994;51.606;9.988;2023-04-26T01:03:15;99100.19;;;2.11;100.00
57114;BME280;42994;51.606;9.988;2023-04-26T01:05:44;99106.72;;;1.98;100.00
57114;BME280;42994;51.606;9.988;2023-04-26T01:08:10;99097.09;;;1.97;100.00
57114;BME280;42994;51.606;9.988;2023-04-26T01:10:42;99107.72;;;2.06;100.00
57114;BME280;42994;51.606;9.988;2023-04-26T01:13:09;99104.34;;;2.04;100.00
57114;BME280;42994;51.606;9.988;2023-04-26T01:15:36;99108.53;;;1.97;100.00
57114;BME280;42994;51.606;9.988;2023-04-26T01:18:03;99115.22;;;2.01;100.00
57114;BME280;42994;51.606;9.988;2023-04-26T01:20:30;99112.00;;;1.98;100.00
57114;BME280;42994;51.606;9.988;2023-04-26T01:22:58;99106.31;;;2.02;100.00
57114;BME280;42994;51.606;9.988;2023-04-26T01:25:25;99111.31;;;1.96;100.00
57114;BME280;42994;51.606;9.988;2023-04-26T01:27:52;99115.34;;;2.00;100.00
57114;BME280;42994;51.606;9.988;2023-04-26T01:30:23;99105.03;;;1.97;100.00
57114;BME280;42994;51.606;9.988;2023-04-26T01:32:50;99107.41;;;1.90;100.00
57114;BME280;42994;51.606;9.988;2023-04-26T01:35:16;99115.34;;;2.00;100.00
57114;BME280;42994;51.606;9.988;2023-04-26T01:37:46;99105.72;;;1.89;100.00
57114;BME280;42994;51.606;9.988;2023-04-26T01:40:14;99113.91;;;1.86;100.00
57114;BME280;42994;51.606;9.988;2023-04-26T01:42:41;99105.59;;;1.90;100.00
57114;BME280;42994;51.606;9.988;2023-04-26T01:45:08;99108.75;;;1.84;100.00
57114;BME280;42994;51.606;9.988;2023-04-26T01:47:54;99110.44;;;1.85;100.00
57114;BME280;42994;51.606;9.988;2023-04-26T01:50:22;99112.38;;;1.83;100.00
57114;BME280;42994;51.606;9.988;2023-04-26T01:52:48;99108.47;;;1.78;100.00
57114;BME280;42994;51.606;9.988;2023-04-26T01:55:18;99115.84;;;1.84;100.00
57114;BME280;42994;51.606;9.988;2023-04-26T01:57:46;99110.00;;;1.80;100.00
57114;BME280;42994;51.606;9.988;2023-04-26T02:00:13;99107.84;;;1.64;100.00
57114;BME280;42994;51.606;9.988;2023-04-26T02:02:40;99101.91;;;1.72;100.00
57114;BME280;42994;51.606;9.988;2023-04-26T02:05:09;99103.03;;;1.79;100.00
57114;BME280;42994;51.606;9.988;2023-04-26T02:07:36;99102.84;;;1.71;100.00
57114;BME280;42994;51.606;9.988;2023-04-26T02:10:03;99102.00;;;1.61;100.00
57114;BME280;42994;51.606;9.988;2023-04-26T02:12:31;99104.47;;;1.62;100.00
57114;BME280;42994;51.606;9.988;2023-04-26T02:14:58;99103.78;;;1.60;100.00
57114;BME280;42994;51.606;9.988;2023-04-26T02:17:26;99095.84;;;1.60;100.00
57114;BME280;42994;51.606;9.988;2023-04-26T02:19:53;99091.81;;;1.56;100.00
57114;BME280;42994;51.606;9.988;2023-04-26T02:22:20;99097.09;;;1.56;100.00
57114;BME280;42994;51.606;9.988;2023-04-26T02:24:49;99103.78;;;1.60;100.00
57114;BME280;42994;51.606;9.988;2023-04-26T02:27:16;99101.72;;;1.64;100.00
57114;BME280;42994;51.606;9.988;2023-04-26T02:29:44;99097.13;;;1.66;100.00
57114;BME280;42994;51.606;9.988;2023-04-26T02:32:11;99104.47;;;1.62;100.00
57114;BME280;42994;51.606;9.988;2023-04-26T02:34:38;99103.09;;;1.58;100.00
57114;BME280;42994;51.606;9.988;2023-04-26T02:37:05;99103.63;;;1.52;100.00
57114;BME280;42994;51.606;9.988;2023-04-26T02:39:32;99105.59;;;1.60;100.00
57114;BME280;42994;51.606;9.988;2023-04-26T02:41:58;99104.91;;;1.58;100.00
57114;BME280;42994;51.606;9.988;2023-04-26T02:44:28;99102.00;;;1.61;100.00
57114;BME280;42994;51.606;9.988;2023-04-26T02:46:56;99103.88;;;1.49;100.00
57114;BME280;42994;51.606;9.988;2023-04-26T02:49:23;99104.00;;;1.47;100.00
57114;BME280;42994;51.606;9.988;2023-04-26T02:51:50;99097.88;;;1.47;100.00
57114;BME280;42994;51.606;9.988;2023-04-26T02:54:17;99102.72;;;1.42;100.00
57114;BME280;42994;51.606;9.988;2023-04-26T02:56:43;99103.56;;;1.42;100.00
57114;BME280;42994;51.606;9.988;2023-04-26T02:59:10;99087.28;;;1.37;100.00
57114;BME280;42994;51.606;9.988;2023-04-26T03:01:36;99092.41;;;1.39;100.00
57114;BME280;42994;51.606;9.988;2023-04-26T03:04:05;99090.06;;;1.36;100.00
57114;BME280;42994;51.606;9.988;2023-04-26T03:06:33;99100.03;;;1.32;100.00
57114;BME280;42994;51.606;9.988;2023-04-26T03:09:00;99097.91;;;1.26;100.00
57114;BME280;42994;51.606;9.988;2023-04-26T03:11:27;99096.56;;;1.31;100.00
57114;BME280;42994;51.606;9.988;2023-04-26T03:13:55;99091.84;;;1.35;100.00
57114;BME280;42994;51.606;9.988;2023-04-26T03:16:22;99102.09;;;1.28;100.00
57114;BME280;42994;51.606;9.988;2023-04-26T03:18:49;99098.22;;;1.32;100.00
57114;BME280;42994;51.606;9.988;2023-04-26T03:21:17;99094.22;;;1.38;100.00
57114;BME280;42994;51.606;9.988;2023-04-26T03:23:44;99095.59;;;1.32;100.00
57114;BME280;42994;51.606;9.988;2023-04-26T03:26:11;99089.47;;;1.32;100.00
57114;BME280;42994;51.606;9.988;2023-04-26T03:28:40;99094.44;;;1.25;100.00
57114;BME280;42994;51.606;9.988;2023-04-26T03:31:07;99093.47;;;1.26;100.00
57114;BME280;42994;51.606;9.988;2023-04-26T03:33:33;99090.84;;;1.26;100.00
57114;BME280;42994;51.606;9.988;2023-04-26T03:36:00;99090.97;;;1.25;100.00
57114;BME280;42994;51.606;9.988;2023-04-26T03:38:28;99089.28;;;1.24;100.00
57114;BME280;42994;51.606;9.988;2023-04-26T03:40:55;99090.38;;;1.00;100.00
57114;BME280;42994;51.606;9.988;2023-04-26T03:43:23;99091.81;;;1.04;100.00
57114;BME280;42994;51.606;9.988;2023-04-26T03:45:51;99099.75;;;1.04;100.00
57114;BME280;42994;51.606;9.988;2023-04-26T03:48:17;99090.84;;;1.05;100.00
57114;BME280;42994;51.606;9.988;2023-04-26T03:50:44;99104.44;;;1.01;100.00
57114;BME280;42994;51.606;9.988;2023-04-26T03:53:11;99100.22;;;0.98;100.00
57114;BME280;42994;51.606;9.988;2023-04-26T03:55:39;99093.59;;;1.04;100.00
57114;BME280;42994;51.606;9.988;2023-04-26T03:58:07;99089.19;;;1.04;100.00
57114;BME280;42994;51.606;9.988;2023-04-26T04:00:36;99095.41;;;1.03;100.00
57114;BME280;42994;51.606;9.988;2023-04-26T04:03:03;99102.88;;;0.98;100.00
57114;BME280;42994;51.606;9.988;2023-04-26T04:05:30;99087.25;;;1.06;100.00
57114;BME280;42994;51.606;9.988;2023-04-26T04:07:57;99084.16;;;1.01;100.00
57114;BME280;42994;51.606;9.988;2023-04-26T04:10:24;99094.31;;;1.06;100.00
57114;BME280;42994;51.606;9.988;2023-04-26T04:12:52;99087.75;;;1.00;100.00
57114;BME280;42994;51.606;9.988;2023-04-26T04:15:19;99094.13;;;0.98;100.00
57114;BME280;42994;51.606;9.988;2023-04-26T04:17:47;99093.88;;;1.01;100.00
57114;BME280;42994;51.606;9.988;2023-04-26T04:20:14;99094.06;;;1.09;100.00
57114;BME280;42994;51.606;9.988;2023-04-26T04:22:41;99087.38;;;1.05;100.00
57114;BME280;42994;51.606;9.988;2023-04-26T04:25:09;99087.75;;;1.00;100.00
57114;BME280;42994;51.606;9.988;2023-04-26T04:27:37;99095.03;;;1.08;100.00
57114;BME280;42994;51.606;9.988;2023-04-26T04:30:06;99094.47;;;1.04;100.00
57114;BME280;42994;51.606;9.988;2023-04-26T04:32:34;99097.94;;;1.05;100.00
57114;BME280;42994;51.606;9.988;2023-04-26T04:35:00;99098.75;;;1.05;100.00
57114;BME280;42994;51.606;9.988;2023-04-26T04:37:27;99100.31;;;1.08;100.00
57114;BME280;42994;51.606;9.988;2023-04-26T04:39:54;99098.63;;;1.07;100.00
57114;BME280;42994;51.606;9.988;2023-04-26T04:42:21;99097.94;;;1.05;100.00
57114;BME280;42994;51.606;9.988;2023-04-26T04:44:48;99110.13;;;1.06;100.00
57114;BME280;42994;51.606;9.988;2023-04-26T04:47:17;99107.97;;;1.11;100.00
57114;BME280;42994;51.606;9.988;2023-04-26T04:49:45;99114.47;;;1.07;100.00
57114;BME280;42994;51.606;9.988;2023-04-26T04:52:12;99104.94;;;1.15;100.00
57114;BME280;42994;51.606;9.988;2023-04-26T04:54:39;99103.97;;;1.17;100.00
57114;BME280;42994;51.606;9.988;2023-04-26T04:57:06;99112.47;;;1.20;100.00
57114;BME280;42994;51.606;9.988;2023-04-26T04:59:34;99117.63;;;1.22;100.00
57114;BME280;42994;51.606;9.988;2023-04-26T05:02:02;99116.91;;;1.20;100.00
57114;BME280;42994;51.606;9.988;2023-04-26T05:04:31;99123.72;;;1.22;100.00
57114;BME280;42994;51.606;9.988;2023-04-26T05:06:58;99126.00;;;1.27;100.00
57114;BME280;42994;51.606;9.988;2023-04-26T05:09:25;99121.25;;;1.21;100.00
57114;BME280;42994;51.606;9.988;2023-04-26T05:11:52;99127.41;;;1.31;100.00
57114;BME280;42994;51.606;9.988;2023-04-26T05:14:19;99124.75;;;1.31;100.00
57114;BME280;42994;51.606;9.988;2023-04-26T05:16:45;99124.50;;;1.34;100.00
57114;BME280;42994;51.606;9.988;2023-04-26T05:19:12;99125.78;;;1.40;100.00
57114;BME280;42994;51.606;9.988;2023-04-26T05:21:40;99133.00;;;1.38;100.00
57114;BME280;42994;51.606;9.988;2023-04-26T05:24:07;99126.75;;;1.39;100.00
57114;BME280;42994;51.606;9.988;2023-04-26T05:26:36;99132.03;;;1.39;100.00
57114;BME280;42994;51.606;9.988;2023-04-26T05:29:28;99121.53;;;1.48;100.00
57114;BME280;42994;51.606;9.988;2023-04-26T05:32:21;99130.88;;;1.52;100.00
57114;BME280;42994;51.606;9.988;2023-04-26T05:34:54;99132.84;;;1.60;100.00
57114;BME280;42994;51.606;9.988;2023-04-26T05:37:22;99143.59;;;1.68;100.00
57114;BME280;42994;51.606;9.988;2023-04-26T05:39:50;99140.69;;;1.71;100.00
57114;BME280;42994;51.606;9.988;2023-04-26T05:42:16;99151.19;;;1.83;100.00
57114;BME280;42994;51.606;9.988;2023-04-26T05:44:43;99149.94;;;1.87;100.00
57114;BME280;42994;51.606;9.988;2023-04-26T05:47:11;99154.25;;;1.88;100.00
57114;BME280;42994;51.606;9.988;2023-04-26T05:49:37;99149.69;;;1.90;100.00
57114;BME280;42994;51.606;9.988;2023-04-26T05:52:04;99154.31;;;1.98;100.00
57114;BME280;42994;51.606;9.988;2023-04-26T05:54:32;99161.53;;;1.96;100.00
57114;BME280;42994;51.606;9.988;2023-04-26T05:56:59;99152.94;;;2.03;100.00
57114;BME280;42994;51.606;9.988;2023-04-26T05:59:27;99162.28;;;2.17;100.00
57114;BME280;42994;51.606;9.988;2023-04-26T06:01:57;99162.59;;;2.24;100.00
57114;BME280;42994;51.606;9.988;2023-04-26T06:04:24;99170.41;;;2.25;100.00
57114;BME280;42994;51.606;9.988;2023-04-26T06:07:04;99166.63;;;2.28;100.00
57114;BME280;42994;51.606;9.988;2023-04-26T06:09:33;99174.00;;;2.24;100.00
57114;BME280;42994;51.606;9.988;2023-04-26T06:11:59;99176.84;;;2.33;100.00
57114;BME280;42994;51.606;9.988;2023-04-26T06:14:26;99167.94;;;2.43;100.00
57114;BME280;42994;51.606;9.988;2023-04-26T06:16:53;99164.06;;;2.57;100.00
57114;BME280;42994;51.606;9.988;2023-04-26T06:19:20;99172.28;;;2.54;100.00
57114;BME280;42994;51.606;9.988;2023-04-26T06:21:46;99165.03;;;2.46;100.00
57114;BME280;42994;51.606;9.988;2023-04-26T06:24:14;99181.19;;;2.53;100.00
57114;BME280;42994;51.606;9.988;2023-04-26T06:26:42;99179.28;;;2.65;100.00
57114;BME280;42994;51.606;9.988;2023-04-26T06:29:08;99180.81;;;2.67;100.00
57114;BME280;42994;51.606;9.988;2023-04-26T06:31:35;99187.78;;;2.78;100.00
57114;BME280;42994;51.606;9.988;2023-04-26T06:34:02;99182.22;;;2.91;100.00
57114;BME280;42994;51.606;9.988;2023-04-26T06:36:28;99184.75;;;2.93;100.00
57114;BME280;42994;51.606;9.988;2023-04-26T06:38:55;99187.25;;;3.04;100.00
57114;BME280;42994;51.606;9.988;2023-04-26T06:41:22;99190.88;;;2.93;100.00
57114;BME280;42994;51.606;9.988;2023-04-26T06:43:50;99198.13;;;3.11;100.00
57114;BME280;42994;51.606;9.988;2023-04-26T06:46:19;99194.78;;;3.18;100.00
57114;BME280;42994;51.606;9.988;2023-04-26T06:48:52;99193.91;;;3.57;100.00
57114;BME280;42994;51.606;9.988;2023-04-26T06:51:18;99205.50;;;3.46;100.00
57114;BME280;42994;51.606;9.988;2023-04-26T06:53:45;99204.81;;;3.34;100.00
57114;BME280;42994;51.606;9.988;2023-04-26T06:56:12;99209.28;;;3.43;100.00
57114;BME280;42994;51.606;9.988;2023-04-26T06:58:56;99198.66;;;3.53;100.00
57114;BME280;42994;51.606;9.988;2023-04-26T07:01:25;99207.84;;;3.59;100.00
57114;BME280;42994;51.606;9.988;2023-04-26T07:03:53;99214.28;;;3.56;100.00
57114;BME280;42994;51.606;9.988;2023-04-26T07:06:20;99207.81;;;3.78;100.00
57114;BME280;42994;51.606;9.988;2023-04-26T07:08:46;99212.28;;;3.78;100.00
57114;BME280;42994;51.606;9.988;2023-04-26T07:11:13;99210.72;;;3.85;100.00
57114;BME280;42994;51.606;9.988;2023-04-26T07:13:40;99207.72;;;4.08;100.00
57114;BME280;42994;51.606;9.988;2023-04-26T07:16:06;99216.84;;;3.95;100.00
57114;BME280;42994;51.606;9.988;2023-04-26T07:18:34;99219.94;;;4.28;100.00
57114;BME280;42994;51.606;9.988;2023-04-26T07:21:01;99222.25;;;4.03;100.00
57114;BME280;42994;51.606;9.988;2023-04-26T07:23:28;99213.53;;;4.21;100.00
57114;BME280;42994;51.606;9.988;2023-04-26T07:25:54;99216.59;;;4.26;100.00
57114;BME280;42994;51.606;9.988;2023-04-26T07:28:21;99214.91;;;4.25;100.00
57114;BME280;42994;51.606;9.988;2023-04-26T07:30:48;99220.31;;;4.06;100.00
57114;BME280;42994;51.606;9.988;2023-04-26T07:33:14;99209.94;;;4.12;100.00
57114;BME280;42994;51.606;9.988;2023-04-26T07:35:43;99223.72;;;4.53;100.00
57114;BME280;42994;51.606;9.988;2023-04-26T07:38:09;99220.63;;;4.58;100.00
57114;BME280;42994;51.606;9.988;2023-04-26T07:40:38;99219.25;;;4.54;100.00
57114;BME280;42994;51.606;9.988;2023-04-26T07:43:07;99226.81;;;4.49;100.00
57114;BME280;42994;51.606;9.988;2023-04-26T07:45:34;99228.97;;;4.35;100.00
57114;BME280;42994;51.606;9.988;2023-04-26T07:48:00;99225.44;;;4.45;100.00
57114;BME280;42994;51.606;9.988;2023-04-26T07:50:27;99236.34;;;4.41;100.00
57114;BME280;42994;51.606;9.988;2023-04-26T07:52:55;99227.00;;;4.37;100.00
57114;BME280;42994;51.606;9.988;2023-04-26T07:55:21;99225.34;;;4.64;100.00
57114;BME280;42994;51.606;9.988;2023-04-26T07:57:48;99226.09;;;4.74;100.00
57114;BME280;42994;51.606;9.988;2023-04-26T08:00:16;99240.75;;;4.51;100.00
57114;BME280;42994;51.606;9.988;2023-04-26T08:02:43;99236.66;;;4.66;100.00
57114;BME280;42994;51.606;9.988;2023-04-26T08:05:10;99231.78;;;4.61;100.00
57114;BME280;42994;51.606;9.988;2023-04-26T08:07:37;99221.66;;;4.75;100.00
57114;BME280;42994;51.606;9.988;2023-04-26T08:10:06;99218.34;;;5.09;100.00
57114;BME280;42994;51.606;9.988;2023-04-26T08:12:34;99227.16;;;4.91;100.00
57114;BME280;42994;51.606;9.988;2023-04-26T08:15:01;99227.16;;;4.91;100.00
57114;BME280;42994;51.606;9.988;2023-04-26T08:17:29;99228.75;;;5.02;100.00
57114;BME280;42994;51.606;9.988;2023-04-26T08:19:55;99225.38;;;5.00;100.00
57114;BME280;42994;51.606;9.988;2023-04-26T08:22:22;99227.00;;;5.11;100.00
57114;BME280;42994;51.606;9.988;2023-04-26T08:24:49;99234.03;;;5.20;100.00
57114;BME280;42994;51.606;9.988;2023-04-26T08:27:17;99222.97;;;5.25;100.00
57114;BME280;42994;51.606;9.988;2023-04-26T08:29:44;99218.09;;;5.20;100.00
57114;BME280;42994;51.606;9.988;2023-04-26T08:32:11;99226.59;;;5.24;100.00
57114;BME280;42994;51.606;9.988;2023-04-26T08:34:38;99220.09;;;5.18;100.00
57114;BME280;42994;51.606;9.988;2023-04-26T08:37:05;99230.66;;;5.28;100.00
57114;BME280;42994;51.606;9.988;2023-04-26T08:39:32;99230.66;;;5.28;100.00
57114;BME280;42994;51.606;9.988;2023-04-26T08:42:04;99239.38;;;5.38;100.00
57114;BME280;42994;51.606;9.988;2023-04-26T08:44:34;99230.28;;;5.23;100.00
57114;BME280;42994;51.606;9.988;2023-04-26T08:47:05;99230.03;;;5.34;100.00
57114;BME280;42994;51.606;9.988;2023-04-26T08:49:39;99234.00;;;5.30;100.00
57114;BME280;42994;51.606;9.988;2023-04-26T08:52:08;99223.75;;;5.17;100.00
57114;BME280;42994;51.606;9.988;2023-04-26T08:54:35;99230.28;;;5.23;100.00
57114;BME280;42994;51.606;9.988;2023-04-26T08:57:02;99231.22;;;5.04;100.00
57114;BME280;42994;51.606;9.988;2023-04-26T08:59:29;99240.88;;;5.05;100.00
57114;BME280;42994;51.606;9.988;2023-04-26T09:01:58;99231.25;;;5.22;100.00
57114;BME280;42994;51.606;9.988;2023-04-26T09:04:27;99235.66;;;5.31;100.00
57114;BME280;42994;51.606;9.988;2023-04-26T09:06:58;99238.97;;;5.33;100.00
57114;BME280;42994;51.606;9.988;2023-04-26T09:09:26;99243.94;;;5.28;100.00
57114;BME280;42994;51.606;9.988;2023-04-26T09:11:55;99235.06;;;5.19;100.00
57114;BME280;42994;51.606;9.988;2023-04-26T09:14:22;99240.22;;;5.20;100.00
57114;BME280;42994;51.606;9.988;2023-04-26T09:16:49;99245.69;;;5.37;100.00
57114;BME280;42994;51.606;9.988;2023-04-26T09:19:17;99247.88;;;5.59;100.00
57114;BME280;42994;51.606;9.988;2023-04-26T09:21:59;99244.69;;;5.38;100.00
57114;BME280;42994;51.606;9.988;2023-04-26T09:24:26;99240.41;;;5.63;100.00
57114;BME280;42994;51.606;9.988;2023-04-26T09:27:00;99242.25;;;5.89;100.00
57114;BME280;42994;51.606;9.988;2023-04-26T09:29:27;99238.19;;;5.76;100.00
57114;BME280;42994;51.606;9.988;2023-04-26T09:31:54;99235.00;;;5.73;100.00
57114;BME280;42994;51.606;9.988;2023-04-26T09:34:23;99238.22;;;5.58;100.00
57114;BME280;42994;51.606;9.988;2023-04-26T09:36:52;99235.38;;;5.78;100.00
57114;BME280;42994;51.606;9.988;2023-04-26T09:39:31;99240.88;;;5.58;100.00
57114;BME280;42994;51.606;9.988;2023-04-26T09:41:59;99242.97;;;5.73;100.00
57114;BME280;42994;51.606;9.988;2023-04-26T09:44:28;99249.16;;;5.73;100.00
57114;BME280;42994;51.606;9.988;2023-04-26T09:47:02;99248.09;;;5.66;100.00
57114;BME280;42994;51.606;9.988;2023-04-26T09:49:32;99244.22;;;5.61;100.00
57114;BME280;42994;51.606;9.988;2023-04-26T09:52:03;99247.88;;;5.59;100.00
57114;BME280;42994;51.606;9.988;2023-04-26T09:54:41;99236.69;;;5.56;100.00
57114;BME280;42994;51.606;9.988;2023-04-26T09:57:08;99244.56;;;5.66;100.00
57114;BME280;42994;51.606;9.988;2023-04-26T09:59:39;99238.28;;;5.93;100.00
57114;BME280;42994;51.606;9.988;2023-04-26T10:02:09;99240.94;;;6.11;100.00
57114;BME280;42994;51.606;9.988;2023-04-26T10:04:40;99233.00;;;6.19;100.00
57114;BME280;42994;51.606;9.988;2023-04-26T10:07:08;99237.91;;;6.32;100.00
57114;BME280;42994;51.606;9.988;2023-04-26T10:09:35;99220.09;;;6.32;100.00
57114;BME280;42994;51.606;9.988;2023-04-26T10:12:01;99226.44;;;6.40;100.00
57114;BME280;42994;51.606;9.988;2023-04-26T10:14:29;99227.47;;;6.47;100.00
57114;BME280;42994;51.606;9.988;2023-04-26T10:16:56;99223.88;;;6.64;100.00
57114;BME280;42994;51.606;9.988;2023-04-26T10:19:23;99214.75;;;6.75;100.00
57114;BME280;42994;51.606;9.988;2023-04-26T10:21:52;99217.56;;;6.65;100.00
57114;BME280;42994;51.606;9.988;2023-04-26T10:24:22;99215.19;;;6.54;99.02
57114;BME280;42994;51.606;9.988;2023-04-26T10:26:50;99207.78;;;6.74;98.79
57114;BME280;42994;51.606;9.988;2023-04-26T10:29:19;99225.63;;;6.39;97.94
57114;BME280;42994;51.606;9.988;2023-04-26T10:32:08;99219.03;;;6.60;99.13
57114;BME280;42994;51.606;9.988;2023-04-26T10:34:36;99219.81;;;6.44;99.12
57114;BME280;42994;51.606;9.988;2023-04-26T10:37:08;99216.06;;;6.71;99.03
57114;BME280;42994;51.606;9.988;2023-04-26T10:39:35;99217.75;;;6.72;100.00
57114;BME280;42994;51.606;9.988;2023-04-26T10:42:22;99207.63;;;6.84;98.80
57114;BME280;42994;51.606;9.988;2023-04-26T10:44:49;99201.88;;;6.62;94.78
57114;BME280;42994;51.606;9.988;2023-04-26T10:47:21;99207.97;;;6.89;95.99
57114;BME280;42994;51.606;9.988;2023-04-26T10:49:49;99215.63;;;6.84;94.99
57114;BME280;42994;51.606;9.988;2023-04-26T10:52:18;99209.63;;;6.82;94.39
57114;BME280;42994;51.606;9.988;2023-04-26T10:54:52;99202.84;;;7.04;95.99
57114;BME280;42994;51.606;9.988;2023-04-26T10:57:20;99218.97;;;7.02;97.09
57114;BME280;42994;51.606;9.988;2023-04-26T11:03:04;99209.94;;;6.70;95.00
57114;BME280;42994;51.606;9.988;2023-04-26T11:05:38;99213.34;;;6.54;93.65
57114;BME280;42994;51.606;9.988;2023-04-26T11:08:15;99211.97;;;6.42;91.34
57114;BME280;42994;51.606;9.988;2023-04-26T11:10:44;99205.25;;;6.72;92.12
57114;BME280;42994;51.606;9.988;2023-04-26T11:13:11;99205.06;;;6.66;91.98
57114;BME280;42994;51.606;9.988;2023-04-26T11:15:37;99202.75;;;6.63;90.14
57114;BME280;42994;51.606;9.988;2023-04-26T11:18:04;99205.63;;;6.78;88.73
57114;BME280;42994;51.606;9.988;2023-04-26T11:20:31;99199.28;;;6.70;86.97
57114;BME280;42994;51.606;9.988;2023-04-26T11:22:58;99191.81;;;6.99;88.72
57114;BME280;42994;51.606;9.988;2023-04-26T11:25:27;99189.03;;;7.17;89.21
57114;BME280;42994;51.606;9.988;2023-04-26T11:27:58;99185.69;;;7.31;90.27
57114;BME280;42994;51.606;9.988;2023-04-26T11:30:30;99191.69;;;7.17;88.44
57114;BME280;42994;51.606;9.988;2023-04-26T11:32:57;99192.72;;;7.32;88.26
57114;BME280;42994;51.606;9.988;2023-04-26T11:35:25;99189.84;;;7.34;86.78
57114;BME280;42994;51.606;9.988;2023-04-26T11:37:57;99193.34;;;7.09;85.02
57114;BME280;42994;51.606;9.988;2023-04-26T11:40:28;99200.16;;;6.96;85.42
57114;BME280;42994;51.606;9.988;2023-04-26T11:42:58;99195.19;;;7.25;86.10
57114;BME280;42994;51.606;9.988;2023-04-26T11:45:25;99190.03;;;7.16;87.10
57114;BME280;42994;51.606;9.988;2023-04-26T11:47:52;99195.03;;;7.43;88.62
57114;BME280;42994;51.606;9.988;2023-04-26T11:50:20;99192.72;;;7.48;89.66
57114;BME280;42994;51.606;9.988;2023-04-26T11:52:52;99197.88;;;7.42;89.77
57114;BME280;42994;51.606;9.988;2023-04-26T11:55:22;99202.19;;;7.26;88.69
57114;BME280;42994;51.606;9.988;2023-04-26T11:57:51;99195.63;;;6.88;85.31
57114;BME280;42994;51.606;9.988;2023-04-26T12:00:18;99198.72;;;7.34;87.67
57114;BME280;42994;51.606;9.988;2023-04-26T12:02:46;99204.16;;;7.08;86.12
57114;BME280;42994;51.606;9.988;2023-04-26T12:05:20;99199.97;;;6.89;84.90
57114;BME280;42994;51.606;9.988;2023-04-26T12:07:50;99205.69;;;7.10;86.00
57114;BME280;42994;51.606;9.988;2023-04-26T12:10:19;99206.19;;;7.22;87.14
57114;BME280;42994;51.606;9.988;2023-04-26T12:12:47;99213.53;;;7.28;87.82
57114;BME280;42994;51.606;9.988;2023-04-26T12:15:16;99208.16;;;7.04;87.64
57114;BME280;42994;51.606;9.988;2023-04-26T12:17:55;99207.19;;;7.29;88.76
57114;BME280;42994;51.606;9.988;2023-04-26T12:20:26;99213.38;;;7.55;90.37
57114;BME280;42994;51.606;9.988;2023-04-26T12:23:04;99209.88;;;7.38;89.11
57114;BME280;42994;51.606;9.988;2023-04-26T12:25:33;99215.19;;;7.46;90.82
57114;BME280;42994;51.606;9.988;2023-04-26T12:28:00;99203.69;;;7.45;89.61
57114;BME280;42994;51.606;9.988;2023-04-26T12:30:28;99200.69;;;7.24;88.30
57114;BME280;42994;51.606;9.988;2023-04-26T12:33:00;99207.84;;;7.48;91.66
57114;BME280;42994;51.606;9.988;2023-04-26T12:35:28;99201.34;;;7.59;91.86
57114;BME280;42994;51.606;9.988;2023-04-26T12:37:54;99210.84;;;7.69;91.72
57114;BME280;42994;51.606;9.988;2023-04-26T12:40:21;99210.03;;;7.69;90.53
57114;BME280;42994;51.606;9.988;2023-04-26T12:42:49;99203.38;;;7.48;88.48
57114;BME280;42994;51.606;9.988;2023-04-26T12:45:16;99194.84;;;7.53;88.17
57114;BME280;42994;51.606;9.988;2023-04-26T12:47:45;99208.00;;;7.63;89.34
57114;BME280;42994;51.606;9.988;2023-04-26T12:50:12;99207.84;;;7.48;87.55
57114;BME280;42994;51.606;9.988;2023-04-26T12:52:39;99208.53;;;7.50;85.50
57114;BME280;42994;51.606;9.988;2023-04-26T12:55:07;99203.88;;;7.27;84.31
57114;BME280;42994;51.606;9.988;2023-04-26T12:57:35;99196.53;;;7.29;83.62
57114;BME280;42994;51.606;9.988;2023-04-26T13:00:02;99205.69;;;7.51;85.69
57114;BME280;42994;51.606;9.988;2023-04-26T13:02:29;99208.19;;;7.69;86.63
57114;BME280;42994;51.606;9.988;2023-04-26T13:04:59;99196.84;;;7.84;86.90
57114;BME280;42994;51.606;9.988;2023-04-26T13:07:28;99199.97;;;7.96;88.11
57114;BME280;42994;51.606;9.988;2023-04-26T13:09:55;99208.19;;;7.78;87.67
57114;BME280;42994;51.606;9.988;2023-04-26T13:12:22;99208.69;;;7.57;87.59